createdAt,value
2018-07-24T00:00:06.409Z,14.07
2018-07-24T00:02:35.341Z,16.03
2018-07-24T00:05:04.636Z,12.90
2018-07-24T00:07:33.781Z,15.73
2018-07-24T00:10:03.713Z,16.10
2018-07-24T00:12:32.786Z,15.97
2018-07-24T00:15:01.856Z,11.83
2018-07-24T00:17:30.868Z,11.97
2018-07-24T00:19:59.825Z,16.37
2018-07-24T00:22:28.726Z,11.30
2018-07-24T00:24:57.782Z,15.73
2018-07-24T00:27:26.737Z,13.77
2018-07-24T00:29:55.690Z,13.40
2018-07-24T00:32:24.721Z,14.83
2018-07-24T00:34:53.701Z,12.20
2018-07-24T00:37:22.660Z,11.07
2018-07-24T00:39:51.372Z,12.13
2018-07-24T00:42:20.161Z,14.63
2018-07-24T00:44:49.117Z,15.07
2018-07-24T00:47:18.075Z,13.90
2018-07-24T00:49:47.029Z,18.47
2018-07-24T00:52:15.984Z,15.80
2018-07-24T00:54:45.374Z,16.40
2018-07-24T00:57:14.084Z,18.87
2018-07-24T00:59:42.905Z,13.70
2018-07-24T01:02:12.140Z,15.43
2018-07-24T01:04:41.177Z,13.20
2018-07-24T01:07:10.205Z,18.37
2018-07-24T01:09:39.153Z,16.43
2018-07-24T01:12:08.085Z,11.17
2018-07-24T01:14:37.070Z,13.50
2018-07-24T01:17:06.045Z,14.90
2018-07-24T01:19:35.057Z,15.50
2018-07-24T01:22:04.013Z,11.47
2018-07-24T01:24:33.097Z,17.27
2018-07-24T01:27:02.159Z,15.00
2018-07-24T01:29:31.109Z,13.83
2018-07-24T01:32:00.268Z,16.43
2018-07-24T01:34:29.030Z,17.70
2018-07-24T01:36:57.842Z,12.37
2018-07-24T01:39:27.044Z,16.40
2018-07-24T01:41:56.094Z,18.70
2018-07-24T01:44:25.049Z,13.67
2018-07-24T01:46:53.982Z,17.90
2018-07-24T01:49:22.907Z,17.20
2018-07-24T01:51:51.925Z,14.27
2018-07-24T01:54:20.881Z,16.93
2018-07-24T01:56:49.817Z,17.80
2018-07-24T01:59:18.745Z,13.87
2018-07-24T02:01:47.714Z,18.00
2018-07-24T02:04:16.697Z,19.10
2018-07-24T02:06:45.679Z,14.67
2018-07-24T02:09:14.809Z,19.30
2018-07-24T02:11:43.873Z,17.13
2018-07-24T02:14:12.873Z,20.23
2018-07-24T02:16:41.814Z,16.53
2018-07-24T02:19:10.852Z,15.57
2018-07-24T02:21:39.800Z,16.37
2018-07-24T02:24:08.536Z,16.67
2018-07-24T02:26:37.678Z,12.90
2018-07-24T02:29:06.632Z,17.57
2018-07-24T02:31:35.569Z,13.07
2018-07-24T02:34:04.556Z,14.47
2018-07-24T02:36:33.510Z,16.93
2018-07-24T02:39:02.485Z,17.60
2018-07-24T02:41:31.641Z,15.57
2018-07-24T02:44:00.682Z,17.43
2018-07-24T02:46:29.614Z,22.07
2018-07-24T02:48:58.673Z,18.70
2018-07-24T02:51:27.707Z,14.73
2018-07-24T02:53:56.815Z,38.03
2018-07-24T02:56:26.556Z,17.93
2018-07-24T02:58:55.501Z,16.97
2018-07-24T03:01:24.553Z,17.70
2018-07-24T03:03:53.537Z,21.70
2018-07-24T03:06:22.515Z,16.70
2018-07-24T03:08:51.509Z,22.20
2018-07-24T03:11:20.688Z,19.50
2018-07-24T03:13:49.380Z,17.87
2018-07-24T03:16:18.346Z,18.97
2018-07-24T03:18:47.281Z,24.67
2018-07-24T03:21:16.316Z,18.83
2018-07-24T03:23:45.250Z,20.73
2018-07-24T03:26:14.246Z,21.83
2018-07-24T03:28:43.250Z,25.17
2018-07-24T03:31:12.189Z,27.97
2018-07-24T03:33:41.155Z,26.43
2018-07-24T03:36:10.076Z,20.63
2018-07-24T03:38:39.090Z,22.03
2018-07-24T03:41:09.080Z,19.93
2018-07-24T03:43:38.108Z,19.20
2018-07-24T03:46:07.080Z,19.43
2018-07-24T03:48:36.222Z,22.97
2018-07-24T03:51:05.157Z,18.20
2018-07-24T03:53:34.090Z,26.13
2018-07-24T03:56:03.034Z,19.27
2018-07-24T03:58:32.092Z,27.00
2018-07-24T04:01:01.129Z,25.80
2018-07-24T04:03:30.066Z,21.60
2018-07-24T04:05:59.128Z,29.47
2018-07-24T04:08:28.057Z,24.87
2018-07-24T04:10:57.257Z,19.83
2018-07-24T04:13:27.184Z,27.33
2018-07-24T04:15:56.167Z,36.90
2018-07-24T04:18:25.121Z,23.37
2018-07-24T04:20:54.076Z,37.17
2018-07-24T04:23:23.012Z,30.70
2018-07-24T04:25:51.954Z,23.97
2018-07-24T04:28:21.021Z,24.73
2018-07-24T04:30:50.078Z,24.87
2018-07-24T04:33:18.971Z,23.60
2018-07-24T04:35:48.057Z,34.00
2018-07-24T04:38:17.117Z,25.73
2018-07-24T04:40:46.070Z,27.20
2018-07-24T04:43:15.103Z,27.60
2018-07-24T04:45:44.295Z,28.40
2018-07-24T04:48:13.279Z,26.27
2018-07-24T04:50:42.300Z,23.33
2018-07-24T04:53:11.268Z,30.77
2018-07-24T04:55:40.301Z,22.30
2018-07-24T04:58:09.283Z,30.33
2018-07-24T05:00:38.318Z,21.17
2018-07-24T05:03:07.291Z,29.53
2018-07-24T05:05:36.180Z,33.67
2018-07-24T05:08:05.127Z,20.87
2018-07-24T05:10:34.162Z,19.90
2018-07-24T05:13:03.129Z,26.13
2018-07-24T05:15:32.110Z,25.23
2018-07-24T05:18:01.109Z,23.90
2018-07-24T05:20:30.085Z,18.93
2018-07-24T05:22:58.997Z,26.90
2018-07-24T05:25:27.926Z,23.43
2018-07-24T05:27:56.661Z,23.13
2018-07-24T05:30:25.745Z,16.07
2018-07-24T05:32:54.677Z,30.47
2018-07-24T05:35:23.637Z,40.40
2018-07-24T05:37:52.583Z,30.10
2018-07-24T05:40:21.558Z,27.00
2018-07-24T05:42:50.521Z,31.17
2018-07-24T05:45:19.485Z,30.37
2018-07-24T05:47:48.413Z,31.50
2018-07-24T05:50:17.365Z,22.50
2018-07-24T05:52:46.333Z,25.10
2018-07-24T05:55:15.386Z,24.80
2018-07-24T05:57:44.357Z,27.00
2018-07-24T06:00:13.325Z,23.93
2018-07-24T06:02:42.253Z,25.80
2018-07-24T06:05:11.209Z,39.60
2018-07-24T06:07:40.646Z,31.30
2018-07-24T06:10:09.613Z,25.20
2018-07-24T06:12:38.608Z,25.87
2018-07-24T06:15:08.332Z,24.93
2018-07-24T06:17:37.331Z,44.60
2018-07-24T06:20:07.829Z,31.23
2018-07-24T06:22:36.745Z,34.60
2018-07-24T06:25:05.818Z,41.97
2018-07-24T06:27:34.947Z,34.97
2018-07-24T06:30:05.414Z,27.10
2018-07-24T06:32:34.444Z,45.17
2018-07-24T06:35:03.429Z,28.47
2018-07-24T06:37:32.117Z,44.97
2018-07-24T06:40:01.066Z,33.80
2018-07-24T06:42:29.994Z,25.40
2018-07-24T06:44:58.897Z,20.70
2018-07-24T06:47:27.866Z,25.93
2018-07-24T06:49:56.775Z,31.00
2018-07-24T06:52:25.688Z,24.53
2018-07-24T06:54:54.600Z,27.10
2018-07-24T06:57:23.509Z,17.63
2018-07-24T06:59:52.439Z,26.73
2018-07-24T07:02:21.361Z,40.77
2018-07-24T07:04:50.294Z,22.73
2018-07-24T07:07:19.226Z,29.90
2018-07-24T07:09:47.997Z,25.07
2018-07-24T07:12:16.819Z,19.53
2018-07-24T07:14:45.473Z,20.43
2018-07-24T07:17:14.272Z,15.33
2018-07-24T07:19:43.177Z,23.93
2018-07-24T07:22:12.126Z,24.20
2018-07-24T07:24:41.052Z,20.47
2018-07-24T07:27:10.248Z,15.30
2018-07-24T07:29:39.161Z,20.27
2018-07-24T07:32:08.185Z,18.43
2018-07-24T07:34:37.501Z,20.90
2018-07-24T07:37:06.530Z,20.87
2018-07-24T07:39:35.458Z,22.23
2018-07-24T07:42:04.382Z,17.80
2018-07-24T07:44:33.460Z,24.87
2018-07-24T07:47:02.826Z,15.13
2018-07-24T07:49:32.000Z,11.60
2018-07-24T07:52:00.914Z,12.00
2018-07-24T07:54:29.947Z,7.53
2018-07-24T07:56:58.839Z,14.33
2018-07-24T07:59:27.743Z,17.00
2018-07-24T08:01:56.674Z,13.70
2018-07-24T08:04:25.737Z,13.97
2018-07-24T08:06:54.522Z,16.90
2018-07-24T08:09:23.424Z,14.00
2018-07-24T08:11:52.373Z,15.57
2018-07-24T08:14:22.075Z,18.50
2018-07-24T08:16:50.981Z,19.80
2018-07-24T08:19:20.083Z,16.33
2018-07-24T08:21:49.145Z,8.50
2018-07-24T08:24:18.325Z,15.07
2018-07-24T08:26:47.464Z,10.00
2018-07-24T08:29:16.876Z,13.13
2018-07-24T08:31:46.453Z,15.30
2018-07-24T08:34:15.512Z,11.50
2018-07-24T08:36:44.640Z,12.00
2018-07-24T08:39:13.722Z,8.43
2018-07-24T08:41:42.817Z,13.83
2018-07-24T08:44:12.016Z,15.03
2018-07-24T08:46:41.095Z,9.87
2018-07-24T08:49:10.220Z,7.00
2018-07-24T08:51:39.306Z,9.80
2018-07-24T08:54:08.438Z,9.07
2018-07-24T08:56:37.368Z,20.73
2018-07-24T08:59:06.536Z,10.40
2018-07-24T09:01:35.682Z,11.73
2018-07-24T09:04:04.740Z,7.17
2018-07-24T09:06:33.868Z,10.30
2018-07-24T09:09:02.993Z,12.00
2018-07-24T09:11:32.058Z,9.23
2018-07-24T09:14:01.180Z,9.20
2018-07-24T09:16:30.211Z,9.23
2018-07-24T09:18:59.149Z,9.97
2018-07-24T09:21:28.509Z,12.17
2018-07-24T09:23:58.438Z,15.33
2018-07-24T09:26:27.426Z,10.20
2018-07-24T09:28:56.510Z,8.40
2018-07-24T09:31:25.400Z,8.60
2018-07-24T09:33:54.327Z,8.60
2018-07-24T09:36:23.382Z,13.83
2018-07-24T09:38:52.916Z,10.07
2018-07-24T09:41:21.840Z,9.70
2018-07-24T09:43:50.773Z,9.90
2018-07-24T09:46:19.714Z,9.48
2018-07-24T09:48:48.893Z,12.07
2018-07-24T09:51:17.798Z,10.90
2018-07-24T09:53:46.710Z,9.43
2018-07-24T09:56:15.973Z,11.43
2018-07-24T09:58:44.893Z,11.17
2018-07-24T10:01:19.374Z,9.83
2018-07-24T10:03:48.348Z,13.48
2018-07-24T10:06:17.291Z,7.10
2018-07-24T10:08:46.285Z,12.30
2018-07-24T10:11:15.213Z,8.13
2018-07-24T10:13:44.437Z,10.03
2018-07-24T10:16:13.353Z,10.43
2018-07-24T10:18:42.239Z,7.53
2018-07-24T10:21:11.201Z,12.37
2018-07-24T10:23:40.153Z,10.55
2018-07-24T10:26:10.083Z,8.65
2018-07-24T10:28:39.012Z,7.33
2018-07-24T10:31:07.917Z,9.70
2018-07-24T10:33:36.941Z,8.83
2018-07-24T10:36:05.864Z,9.33
2018-07-24T10:38:34.830Z,8.87
2018-07-24T10:41:03.752Z,14.98
2018-07-24T10:43:33.040Z,10.88
2018-07-24T10:46:03.244Z,12.00
2018-07-24T10:48:32.401Z,8.43
2018-07-24T10:51:01.601Z,12.20
2018-07-24T10:53:30.889Z,8.28
2018-07-24T10:56:00.058Z,10.08
2018-07-24T10:58:29.515Z,6.15
2018-07-24T11:00:58.635Z,7.55
2018-07-24T11:03:29.867Z,5.80
2018-07-24T11:05:59.063Z,7.60
2018-07-24T11:08:27.769Z,5.37
2018-07-24T11:19:56.331Z,6.37
2018-07-24T11:22:25.508Z,8.38
2018-07-24T11:24:54.342Z,15.68
2018-07-24T11:27:23.347Z,9.18
2018-07-24T11:29:52.295Z,12.47
2018-07-24T11:32:21.042Z,15.80
2018-07-24T11:34:49.925Z,16.75
2018-07-24T11:37:18.887Z,13.10
2018-07-24T11:39:47.845Z,11.33
2018-07-24T11:42:16.840Z,6.08
2018-07-24T11:44:45.854Z,7.33
2018-07-24T11:47:14.957Z,9.43
2018-07-24T11:49:43.974Z,8.55
2018-07-24T11:52:12.954Z,5.80
2018-07-24T11:54:41.941Z,5.75
2018-07-24T11:57:10.967Z,8.30
2018-07-24T11:59:40.049Z,6.62
2018-07-24T12:02:09.082Z,11.18
2018-07-24T12:04:38.141Z,6.25
2018-07-24T12:07:07.085Z,8.73
2018-07-24T12:09:36.099Z,10.43
2018-07-24T12:12:05.105Z,10.60
2018-07-24T12:14:34.147Z,6.45
2018-07-24T12:17:03.099Z,6.28
2018-07-24T12:19:32.127Z,6.20
2018-07-24T12:22:01.102Z,6.83
2018-07-24T12:24:30.104Z,7.62
2018-07-24T12:26:59.129Z,9.25
2018-07-24T12:29:28.162Z,14.23
2018-07-24T12:31:57.199Z,18.23
2018-07-24T12:34:26.204Z,6.62
2018-07-24T12:36:55.205Z,8.98
2018-07-24T12:39:24.311Z,7.15
2018-07-24T12:41:53.300Z,6.03
2018-07-24T12:44:22.318Z,7.20
2018-07-24T12:46:51.346Z,12.58
2018-07-24T12:49:20.467Z,10.63
2018-07-24T12:51:49.483Z,8.95
2018-07-24T12:54:18.484Z,8.20
2018-07-24T12:56:47.466Z,7.97
2018-07-24T12:59:16.546Z,6.45
2018-07-24T13:01:45.555Z,6.75
2018-07-24T13:04:14.560Z,8.53
2018-07-24T13:06:43.547Z,10.25
2018-07-24T13:09:12.633Z,8.63
2018-07-24T13:11:41.675Z,7.47
2018-07-24T13:14:10.710Z,20.97
2018-07-24T13:16:39.785Z,9.17
2018-07-24T13:19:08.662Z,10.00
2018-07-24T13:21:38.965Z,10.37
2018-07-24T13:24:07.915Z,8.17
2018-07-24T13:26:36.952Z,10.40
2018-07-24T13:29:06.271Z,10.90
2018-07-24T13:31:35.271Z,6.57
2018-07-24T13:34:04.243Z,7.80
2018-07-24T13:36:33.249Z,9.53
2018-07-24T13:39:02.239Z,9.23
2018-07-24T13:41:31.239Z,10.43
2018-07-24T13:44:00.227Z,9.15
2018-07-24T13:46:29.385Z,6.30
2018-07-24T13:48:58.360Z,9.43
2018-07-24T13:51:27.390Z,7.05
2018-07-24T13:53:56.355Z,9.03
2018-07-24T13:56:25.357Z,6.40
2018-07-24T13:58:54.377Z,8.28
2018-07-24T14:01:23.396Z,10.93
2018-07-24T14:03:52.400Z,7.70
2018-07-24T14:06:21.390Z,7.15
2018-07-24T14:08:50.395Z,7.45
2018-07-24T14:11:19.376Z,6.25
2018-07-24T14:13:48.379Z,6.95
2018-07-24T14:16:17.520Z,5.85
2018-07-24T14:18:46.517Z,8.50
2018-07-24T14:21:15.608Z,7.75
2018-07-24T14:23:44.589Z,6.53
2018-07-24T14:26:13.598Z,9.30
2018-07-24T14:28:42.604Z,7.47
2018-07-24T14:31:11.616Z,6.28
2018-07-24T14:33:40.544Z,8.65
2018-07-24T14:36:09.535Z,5.87
2018-07-24T14:38:38.521Z,11.43
2018-07-24T14:41:07.527Z,6.00
2018-07-24T14:43:36.528Z,6.73
2018-07-24T14:46:05.533Z,6.50
2018-07-24T14:48:34.542Z,10.83
2018-07-24T14:51:03.557Z,15.57
2018-07-24T14:53:32.531Z,9.85
2018-07-24T14:56:01.510Z,7.20
2018-07-24T14:58:30.668Z,7.00
2018-07-24T15:00:59.652Z,6.67
2018-07-24T15:03:28.648Z,10.63
2018-07-24T15:05:57.645Z,14.77
2018-07-24T15:08:26.650Z,9.10
2018-07-24T15:10:55.672Z,8.07
2018-07-24T15:13:24.636Z,6.30
2018-07-24T15:15:53.624Z,8.17
2018-07-24T15:18:23.167Z,7.00
2018-07-24T15:20:52.187Z,8.50
2018-07-24T15:23:21.188Z,6.20
2018-07-24T15:25:50.182Z,14.83
2018-07-24T15:28:19.165Z,7.10
2018-07-24T15:30:48.129Z,7.80
2018-07-24T15:33:17.063Z,6.07
2018-07-24T15:35:46.158Z,5.33
2018-07-24T15:38:16.133Z,10.40
2018-07-24T15:40:46.129Z,6.90
2018-07-24T15:43:15.115Z,5.70
2018-07-24T15:45:44.121Z,9.40
2018-07-24T15:48:13.125Z,8.57
2018-07-24T15:50:42.115Z,8.70
2018-07-24T15:53:11.117Z,6.60
2018-07-24T15:55:40.115Z,9.67
2018-07-24T15:58:09.099Z,6.97
2018-07-24T16:00:38.105Z,6.20
2018-07-24T16:03:07.098Z,9.87
2018-07-24T16:05:36.490Z,7.63
2018-07-24T16:08:05.673Z,8.33
2018-07-24T16:10:34.730Z,7.13
2018-07-24T16:13:04.147Z,9.87
2018-07-24T16:15:33.206Z,7.73
2018-07-24T16:18:02.126Z,6.20
2018-07-24T16:20:31.171Z,7.17
2018-07-24T16:23:00.189Z,6.30
2018-07-24T16:25:29.217Z,6.57
2018-07-24T16:27:58.204Z,6.63
2018-07-24T16:30:27.208Z,8.57
2018-07-24T16:32:56.171Z,7.40
2018-07-24T16:35:25.311Z,7.00
2018-07-24T16:37:54.293Z,6.23
2018-07-24T16:40:23.289Z,7.43
2018-07-24T16:42:52.317Z,11.80
2018-07-24T16:45:21.321Z,10.30
2018-07-24T16:47:51.341Z,6.07
2018-07-24T16:50:20.335Z,21.90
2018-07-24T16:52:49.331Z,5.57
2018-07-24T16:55:18.379Z,8.90
2018-07-24T16:57:47.357Z,7.00
2018-07-24T17:00:16.769Z,6.80
2018-07-24T17:02:45.803Z,6.30
2018-07-24T17:05:14.796Z,10.70
2018-07-24T17:07:43.805Z,10.50
2018-07-24T17:10:12.799Z,9.33
2018-07-24T17:12:41.792Z,13.43
2018-07-24T17:15:10.551Z,12.13
2018-07-24T17:17:39.468Z,8.50
2018-07-24T17:20:08.523Z,9.87
2018-07-24T17:22:37.487Z,9.57
2018-07-24T17:25:06.501Z,6.63
2018-07-24T17:27:35.709Z,10.10
2018-07-24T17:30:04.852Z,13.50
2018-07-24T17:32:33.824Z,20.10
2018-07-24T17:35:02.821Z,23.73
2018-07-24T17:37:32.116Z,8.77
2018-07-24T17:40:01.115Z,13.30
2018-07-24T17:42:30.093Z,8.53
2018-07-24T17:44:59.063Z,8.90
2018-07-24T17:47:28.063Z,7.30
2018-07-24T17:49:57.039Z,7.20
2018-07-24T17:52:25.995Z,9.67
2018-07-24T17:54:54.998Z,8.87
2018-07-24T17:57:23.984Z,13.33
2018-07-24T17:59:53.017Z,8.00
2018-07-24T18:02:22.013Z,7.40
2018-07-24T18:04:51.072Z,7.50
2018-07-24T18:07:20.094Z,7.37
2018-07-24T18:09:49.031Z,10.43
2018-07-24T18:12:18.412Z,10.50
2018-07-24T18:14:47.451Z,10.57
2018-07-24T18:17:16.408Z,8.80
2018-07-24T18:19:45.388Z,10.40
2018-07-24T18:22:14.380Z,7.73
2018-07-24T18:24:43.362Z,10.07
2018-07-24T18:27:12.363Z,10.50
2018-07-24T18:29:41.332Z,9.60
2018-07-24T18:32:10.444Z,6.83
2018-07-24T18:34:39.444Z,7.37
2018-07-24T18:37:08.449Z,7.90
2018-07-24T18:39:37.432Z,8.33
2018-07-24T18:42:06.387Z,10.03
2018-07-24T18:44:35.371Z,8.73
2018-07-24T18:47:04.324Z,9.30
2018-07-24T18:49:34.078Z,10.20
2018-07-24T18:52:02.935Z,10.40
2018-07-24T18:54:31.898Z,11.87
2018-07-24T18:57:00.919Z,19.67
2018-07-24T18:59:29.903Z,17.73
2018-07-24T19:01:58.956Z,14.60
2018-07-24T19:04:27.983Z,16.93
2018-07-24T19:06:56.966Z,10.77
2018-07-24T19:09:25.975Z,12.00
2018-07-24T19:11:54.995Z,12.83
2018-07-24T19:14:24.024Z,16.13
2018-07-24T19:16:53.017Z,16.60
2018-07-24T19:19:22.034Z,18.93
2018-07-24T19:21:51.103Z,15.20
2018-07-24T19:24:20.079Z,15.00
2018-07-24T19:26:50.093Z,15.83
2018-07-24T19:29:19.077Z,22.33
2018-07-24T19:31:48.054Z,25.87
2018-07-24T19:34:19.197Z,11.27
2018-07-24T19:36:48.171Z,14.90
2018-07-24T19:39:17.159Z,17.60
2018-07-24T19:41:46.152Z,17.67
2018-07-24T19:44:15.157Z,19.53
2018-07-24T19:46:44.184Z,21.40
2018-07-24T19:49:13.167Z,17.37
2018-07-24T19:51:43.164Z,16.73
2018-07-24T19:54:12.124Z,20.43
2018-07-24T19:56:41.100Z,22.77
2018-07-24T19:59:10.095Z,18.77
2018-07-24T20:01:39.095Z,17.77
2018-07-24T20:04:08.075Z,19.63
2018-07-24T20:06:37.111Z,19.70
2018-07-24T20:09:08.811Z,12.50
2018-07-24T20:11:37.782Z,26.73
2018-07-24T20:14:06.851Z,17.67
2018-07-24T20:16:35.872Z,13.60
2018-07-24T20:19:04.990Z,24.43
2018-07-24T20:21:33.963Z,23.63
2018-07-24T20:24:02.969Z,17.00
2018-07-24T20:26:32.266Z,13.37
2018-07-24T20:29:01.232Z,10.83
2018-07-24T20:31:30.209Z,13.77
2018-07-24T20:33:59.196Z,16.83
2018-07-24T20:36:28.165Z,11.67
2018-07-24T20:38:57.147Z,10.57
2018-07-24T20:41:25.891Z,15.17
2018-07-24T20:43:54.898Z,13.10
2018-07-24T20:46:23.888Z,13.90
2018-07-24T20:48:53.862Z,16.07
2018-07-24T20:51:22.923Z,11.50
2018-07-24T20:53:51.903Z,13.77
2018-07-24T20:56:20.908Z,9.57
2018-07-24T20:58:49.854Z,15.27
2018-07-24T21:01:18.824Z,12.37
2018-07-24T21:03:47.810Z,15.37
2018-07-24T21:06:17.673Z,10.73
2018-07-24T21:08:46.645Z,14.80
2018-07-24T21:11:15.647Z,14.00
2018-07-24T21:13:44.630Z,16.17
2018-07-24T21:16:13.642Z,11.23
2018-07-24T21:18:42.598Z,10.97
2018-07-24T21:21:11.621Z,11.90
2018-07-24T21:23:41.362Z,13.43
2018-07-24T21:26:10.254Z,10.33
2018-07-24T21:28:40.231Z,14.00
2018-07-24T21:31:09.218Z,12.07
2018-07-24T21:33:38.282Z,16.30
2018-07-24T21:36:07.239Z,10.90
2018-07-24T21:38:36.580Z,14.30
2018-07-24T21:41:05.565Z,15.60
2018-07-24T21:43:34.566Z,22.63
2018-07-24T21:46:03.541Z,14.97
2018-07-24T21:48:32.628Z,10.40
2018-07-24T21:51:01.636Z,18.17
2018-07-24T21:53:30.633Z,24.10
2018-07-24T21:55:59.613Z,13.13
2018-07-24T21:58:28.590Z,12.53
2018-07-24T22:01:03.012Z,18.67
2018-07-24T22:03:31.972Z,13.27
2018-07-24T22:06:01.015Z,11.33
2018-07-24T22:08:29.977Z,14.70
2018-07-24T22:10:58.715Z,10.40
2018-07-24T22:13:27.571Z,11.27
2018-07-24T22:15:56.558Z,10.30
2018-07-24T22:18:25.563Z,15.13
2018-07-24T22:20:54.569Z,15.60
2018-07-24T22:23:23.817Z,12.83
2018-07-24T22:25:52.791Z,16.23
2018-07-24T22:28:21.768Z,17.83
2018-07-24T22:30:50.760Z,13.10
2018-07-24T22:33:19.743Z,16.17
2018-07-24T22:35:48.748Z,16.30
2018-07-24T22:38:17.743Z,17.90
2018-07-24T22:40:46.762Z,23.80
2018-07-24T22:43:15.489Z,11.73
2018-07-24T22:45:44.622Z,12.00
2018-07-24T22:48:13.619Z,17.70
2018-07-24T22:50:42.612Z,19.93
2018-07-24T22:53:11.617Z,15.83
2018-07-24T22:55:40.600Z,16.70
2018-07-24T22:58:09.582Z,13.50
2018-07-24T23:00:38.602Z,15.43
2018-07-24T23:03:07.609Z,14.63
2018-07-24T23:05:36.595Z,25.77
2018-07-24T23:08:06.401Z,13.83
2018-07-24T23:10:35.410Z,21.27
2018-07-24T23:13:05.063Z,19.50
2018-07-24T23:15:34.264Z,17.53
2018-07-24T23:18:03.192Z,23.10
2018-07-24T23:20:32.163Z,24.87
2018-07-24T23:23:01.158Z,16.30
2018-07-24T23:25:30.127Z,19.13
2018-07-24T23:27:59.116Z,15.93
2018-07-24T23:30:28.136Z,17.83
2018-07-24T23:32:57.182Z,18.20
2018-07-24T23:35:26.035Z,15.50
2018-07-24T23:37:55.037Z,19.00
2018-07-24T23:40:24.038Z,19.03
2018-07-24T23:42:53.023Z,22.80
2018-07-24T23:45:22.017Z,17.10
2018-07-24T23:47:51.008Z,20.00
2018-07-24T23:50:20.029Z,19.37
2018-07-24T23:52:49.029Z,22.50
2018-07-24T23:55:18.027Z,16.27
2018-07-24T23:57:47.027Z,27.90
